Time;durP1;ratioP1;P1;durP2;ratioP2;P2;SDS_P1;SDS_P2;PMS_P1;PMS_P2;Temp;Humidity;BMP_temperature;BMP_pressure;BME280_temperature;BME280_humidity;BME280_pressure;Samples;Min_cycle;Max_cycle;Signal;HPM_P1;HPM_P2
2024/01/25 00:02:41;;;;;;;15.67;3.10;;;;;9.30;102080.00;;;;4846917;29;20227;-69
2024/01/25 00:05:27;;;;;;;13.30;2.80;;;;;9.30;102078.00;;;;4914431;28;20236;-69
2024/01/25 00:08:15;;;;;;;9.27;2.80;;;;;9.30;102087.00;;;;4909091;29;20289;-69
2024/01/25 00:11:02;;;;;;;10.63;2.43;;;;;9.20;102090.00;;;;4896122;29;20410;-69
2024/01/25 00:13:49;;;;;;;11.60;2.80;;;;;9.30;102090.00;;;;4862722;29;20772;-70
2024/01/25 00:16:36;;;;;;;18.40;3.57;;;;;9.30;102094.00;;;;4902573;29;20240;-68
2024/01/25 00:19:23;;;;;;;10.67;2.80;;;;;9.20;102091.00;;;;4922588;29;20595;-69
2024/01/25 00:22:09;;;;;;;14.30;2.90;;;;;9.20;102094.00;;;;4917861;29;20217;-71
2024/01/25 00:24:55;;;;;;;12.00;3.17;;;;;9.10;102096.00;;;;4889827;28;20248;-70
2024/01/25 00:27:44;;;;;;;16.23;3.20;;;;;9.10;102106.00;;;;4883369;29;20244;-70
2024/01/25 00:30:30;;;;;;;17.00;3.47;;;;;9.10;102093.00;;;;4913905;29;20236;-70
2024/01/25 00:33:17;;;;;;;16.57;4.40;;;;;9.10;102072.00;;;;4889013;29;20243;-70
2024/01/25 00:36:04;;;;;;;22.70;3.47;;;;;9.10;102092.00;;;;4909669;28;20236;-70
2024/01/25 00:38:51;;;;;;;14.17;2.70;;;;;9.00;102097.00;;;;4918069;29;20271;-70
2024/01/25 00:41:39;;;;;;;12.20;3.73;;;;;9.10;102108.00;;;;4891579;28;20235;-69
2024/01/25 00:44:27;;;;;;;14.17;3.33;;;;;9.00;102104.00;;;;4878098;29;20212;-70
2024/01/25 00:47:14;;;;;;;14.50;3.37;;;;;8.90;102101.00;;;;4941210;29;20234;-67
2024/01/25 00:50:01;;;;;;;12.87;2.47;;;;;8.90;102101.00;;;;4878889;29;21016;-70
2024/01/25 00:52:48;;;;;;;15.10;3.07;;;;;8.80;102108.00;;;;4866381;29;20316;-69
2024/01/25 00:55:35;;;;;;;15.13;3.07;;;;;8.90;102107.00;;;;4845956;28;20757;-68
2024/01/25 00:58:22;;;;;;;10.33;2.67;;;;;8.80;102105.00;;;;4875767;29;20409;-70
2024/01/25 01:01:11;;;;;;;16.70;3.10;;;;;8.70;102114.00;;;;4885293;29;21088;-70
2024/01/25 01:03:59;;;;;;;13.03;2.97;;;;;8.80;102120.00;;;;4889846;28;20419;-70
2024/01/25 01:06:47;;;;;;;18.27;2.50;;;;;8.80;102119.00;;;;4893095;29;20213;-70
2024/01/25 01:09:34;;;;;;;10.37;2.30;;;;;8.90;102114.00;;;;4907943;29;20244;-69
2024/01/25 01:12:20;;;;;;;11.80;3.57;;;;;8.80;102105.00;;;;4875156;29;20245;-70
2024/01/25 01:15:07;;;;;;;23.50;3.90;;;;;8.80;102103.00;;;;4892179;28;20235;-69
2024/01/25 01:17:54;;;;;;;10.07;3.47;;;;;8.80;102106.00;;;;4888345;29;20256;-70
2024/01/25 01:20:41;;;;;;;16.17;3.47;;;;;8.80;102115.00;;;;4911102;29;20793;-70
2024/01/25 01:23:27;;;;;;;15.10;3.07;;;;;8.70;102111.00;;;;4864838;29;20224;-68
2024/01/25 01:26:13;;;;;;;15.40;2.80;;;;;8.80;102132.00;;;;4878343;28;20370;-69
2024/01/25 01:29:00;;;;;;;7.57;2.80;;;;;8.90;102130.00;;;;4912180;29;20237;-70
2024/01/25 01:31:46;;;;;;;11.80;2.57;;;;;8.90;102130.00;;;;4866105;28;20249;-70
2024/01/25 01:34:34;;;;;;;10.10;2.60;;;;;8.90;102136.00;;;;4897272;28;20228;-69
2024/01/25 01:37:20;;;;;;;13.90;2.40;;;;;8.80;102131.00;;;;4876660;29;20699;-71
2024/01/25 01:40:08;;;;;;;11.90;3.47;;;;;8.80;102133.00;;;;4907401;29;20884;-69
2024/01/25 01:42:59;;;;;;;13.07;2.20;;;;;8.70;102115.00;;;;4892558;29;20237;-71
2024/01/25 01:45:46;;;;;;;10.03;3.00;;;;;8.60;102125.00;;;;4895083;28;20300;-70
2024/01/25 01:48:32;;;;;;;15.33;2.97;;;;;8.60;102133.00;;;;4917093;29;20232;-67
2024/01/25 01:51:21;;;;;;;14.27;2.90;;;;;8.60;102139.00;;;;4892788;29;20239;-69
2024/01/25 01:54:08;;;;;;;9.00;2.77;;;;;8.60;102138.00;;;;4919532;29;21336;-70
2024/01/25 01:56:55;;;;;;;10.90;2.90;;;;;8.40;102133.00;;;;4882633;28;20755;-70
2024/01/25 01:59:42;;;;;;;11.20;3.00;;;;;8.30;102140.00;;;;4892378;28;20314;-70
2024/01/25 02:02:28;;;;;;;8.40;2.30;;;;;8.20;102140.00;;;;4910774;29;20217;-69
2024/01/25 02:05:15;;;;;;;5.80;2.50;;;;;8.10;102141.00;;;;4893098;28;20319;-70
2024/01/25 02:08:03;;;;;;;14.00;3.20;;;;;8.00;102131.00;;;;4912388;29;20232;-70
2024/01/25 02:10:50;;;;;;;18.80;2.77;;;;;8.00;102139.00;;;;4837153;29;20827;-70
2024/01/25 02:13:36;;;;;;;11.33;3.10;;;;;8.00;102147.00;;;;4892849;29;20361;-70
2024/01/25 02:16:23;;;;;;;10.00;3.13;;;;;7.90;102148.00;;;;4879198;29;20745;-70
2024/01/25 02:19:10;;;;;;;6.63;2.20;;;;;8.00;102135.00;;;;4874076;29;20761;-69
2024/01/25 02:21:59;;;;;;;5.07;1.97;;;;;7.90;102144.00;;;;4885740;29;20252;-70
2024/01/25 02:24:47;;;;;;;10.10;2.33;;;;;7.90;102146.00;;;;4893392;28;20292;-68
2024/01/25 02:27:38;;;;;;;9.40;3.00;;;;;7.80;102148.00;;;;4899232;29;20247;-68
2024/01/25 02:30:25;;;;;;;13.83;2.80;;;;;7.80;102142.00;;;;4894251;29;20273;-70
2024/01/25 02:33:11;;;;;;;10.73;2.93;;;;;7.80;102153.00;;;;4905337;29;20227;-70
2024/01/25 02:35:57;;;;;;;5.77;1.87;;;;;7.80;102160.00;;;;4858527;29;21029;-69
2024/01/25 02:38:44;;;;;;;9.77;2.33;;;;;7.70;102169.00;;;;4917314;29;20219;-69
2024/01/25 02:41:31;;;;;;;11.70;2.70;;;;;7.70;102173.00;;;;4898745;29;20236;-69
2024/01/25 02:44:18;;;;;;;9.97;2.73;;;;;7.60;102166.00;;;;4904035;29;20237;-70
2024/01/25 02:47:04;;;;;;;6.00;1.67;;;;;7.60;102180.00;;;;4912037;29;20712;-69
2024/01/25 02:49:50;;;;;;;7.47;2.33;;;;;7.60;102173.00;;;;4875843;29;20222;-70
2024/01/25 02:52:37;;;;;;;5.63;2.10;;;;;7.60;102171.00;;;;4872577;28;20308;-70
2024/01/25 02:55:23;;;;;;;10.47;1.97;;;;;7.60;102175.00;;;;4917153;29;20244;-69
2024/01/25 02:58:11;;;;;;;5.33;2.17;;;;;7.50;102172.00;;;;4891181;29;20455;-70
2024/01/25 03:00:57;;;;;;;8.60;1.80;;;;;7.30;102179.00;;;;4886064;29;20226;-69
2024/01/25 03:03:44;;;;;;;9.97;2.73;;;;;7.40;102188.00;;;;4873320;29;20367;-70
2024/01/25 03:06:30;;;;;;;18.83;3.37;;;;;7.40;102197.00;;;;4890056;29;20809;-68
2024/01/25 03:09:17;;;;;;;15.50;2.47;;;;;7.30;102193.00;;;;4877725;29;20246;-69
2024/01/25 03:12:04;;;;;;;12.63;2.50;;;;;7.20;102193.00;;;;4937036;29;20738;-70
2024/01/25 03:14:51;;;;;;;9.10;2.20;;;;;7.10;102198.00;;;;4915686;29;20628;-68
2024/01/25 03:17:37;;;;;;;12.57;2.93;;;;;7.10;102202.00;;;;4906646;29;20223;-69
2024/01/25 03:20:24;;;;;;;8.20;2.77;;;;;6.80;102205.00;;;;4821627;29;20841;-69
2024/01/25 03:23:10;;;;;;;4.77;2.40;;;;;6.80;102206.00;;;;4901399;29;20354;-69
2024/01/25 03:25:56;;;;;;;10.97;3.20;;;;;6.80;102211.00;;;;4902768;29;20774;-69
2024/01/25 03:28:42;;;;;;;6.17;2.60;;;;;6.80;102210.00;;;;4887711;29;20244;-68
2024/01/25 03:31:30;;;;;;;6.97;2.57;;;;;6.80;102210.00;;;;4917238;29;20322;-69
2024/01/25 03:34:16;;;;;;;7.33;2.43;;;;;6.70;102210.00;;;;4899856;28;20237;-70
2024/01/25 03:37:03;;;;;;;13.70;2.20;;;;;6.70;102218.00;;;;4895203;29;20230;-69
2024/01/25 03:39:49;;;;;;;11.23;2.40;;;;;6.70;102220.00;;;;4909628;29;20305;-70
2024/01/25 03:42:36;;;;;;;19.50;3.00;;;;;6.70;102196.00;;;;4861041;29;20385;-69
2024/01/25 03:45:22;;;;;;;14.20;1.73;;;;;6.60;102205.00;;;;4902450;29;20238;-69
2024/01/25 03:48:10;;;;;;;14.10;2.77;;;;;6.50;102194.00;;;;4911480;29;20229;-70
2024/01/25 03:50:56;;;;;;;15.27;2.87;;;;;6.40;102199.00;;;;4935434;29;20265;-69
2024/01/25 03:53:43;;;;;;;7.87;1.90;;;;;6.40;102206.00;;;;4913555;29;20310;-70
2024/01/25 03:56:29;;;;;;;9.23;2.30;;;;;6.40;102205.00;;;;4894259;28;20237;-69
2024/01/25 03:59:15;;;;;;;5.87;2.13;;;;;6.30;102213.00;;;;4893110;29;20287;-70
2024/01/25 04:02:02;;;;;;;11.53;2.33;;;;;6.30;102226.00;;;;4886559;29;20244;-69
2024/01/25 04:04:49;;;;;;;5.33;2.00;;;;;6.30;102234.00;;;;4891962;28;20237;-69
2024/01/25 04:07:36;;;;;;;6.20;1.90;;;;;6.30;102224.00;;;;4920471;29;20957;-69
2024/01/25 04:10:22;;;;;;;20.50;3.47;;;;;6.20;102228.00;;;;4913173;29;20294;-69
2024/01/25 04:13:09;;;;;;;11.73;2.40;;;;;6.20;102224.00;;;;4861418;28;20540;-69
2024/01/25 04:15:55;;;;;;;12.03;2.77;;;;;6.10;102229.00;;;;4878577;29;20876;-70
2024/01/25 04:18:42;;;;;;;10.97;2.13;;;;;6.00;102228.00;;;;4889872;28;20232;-70
2024/01/25 04:21:30;;;;;;;3.57;2.50;;;;;5.90;102233.00;;;;4912418;29;20234;-69
2024/01/25 04:24:16;;;;;;;8.23;1.80;;;;;5.90;102232.00;;;;4920275;28;20226;-68
2024/01/25 04:27:02;;;;;;;1.93;1.63;;;;;5.80;102230.00;;;;4866127;28;20240;-70
2024/01/25 04:29:48;;;;;;;16.83;3.00;;;;;5.80;102243.00;;;;4872192;29;20237;-68
2024/01/25 04:32:36;;;;;;;6.00;2.00;;;;;5.80;102240.00;;;;4920477;29;20238;-69
2024/01/25 04:35:22;;;;;;;10.30;2.90;;;;;5.70;102234.00;;;;4893437;29;20237;-69
2024/01/25 04:38:10;;;;;;;7.67;2.33;;;;;5.70;102231.00;;;;4879197;29;20240;-70
2024/01/25 04:40:56;;;;;;;7.07;1.70;;;;;5.70;102234.00;;;;4907072;29;20269;-69
2024/01/25 04:43:42;;;;;;;11.17;2.80;;;;;5.70;102224.00;;;;4896013;29;20217;-69
2024/01/25 04:46:29;;;;;;;6.93;2.00;;;;;5.70;102246.00;;;;4913404;28;20396;-70
2024/01/25 04:49:15;;;;;;;13.30;2.10;;;;;5.70;102239.00;;;;4913518;29;20265;-70
2024/01/25 04:52:01;;;;;;;9.87;1.97;;;;;5.70;102243.00;;;;4902892;29;20259;-70
2024/01/25 04:54:49;;;;;;;4.87;2.13;;;;;5.70;102225.00;;;;4899027;29;20279;-69
2024/01/25 04:57:35;;;;;;;6.83;2.07;;;;;5.70;102226.00;;;;4909067;29;20236;-70
2024/01/25 05:00:22;;;;;;;10.97;2.13;;;;;5.70;102228.00;;;;4862510;29;20228;-70
2024/01/25 05:03:09;;;;;;;5.97;1.90;;;;;5.60;102229.00;;;;4868184;28;20249;-69
2024/01/25 05:05:55;;;;;;;7.17;2.37;;;;;5.60;102240.00;;;;4911574;28;20242;-69
2024/01/25 05:08:43;;;;;;;8.27;2.70;;;;;5.50;102246.00;;;;4894953;29;20358;-69
2024/01/25 05:11:31;;;;;;;6.47;2.10;;;;;5.50;102242.00;;;;4916668;29;20805;-70
2024/01/25 05:14:17;;;;;;;12.37;2.97;;;;;5.50;102253.00;;;;4828529;29;20253;-69
2024/01/25 05:17:04;;;;;;;13.07;2.77;;;;;5.60;102247.00;;;;4817440;29;20729;-70
2024/01/25 05:19:51;;;;;;;4.30;1.73;;;;;5.50;102240.00;;;;4916627;29;20220;-70
2024/01/25 05:22:40;;;;;;;4.63;2.03;;;;;5.50;102236.00;;;;4912830;29;20231;-69
2024/01/25 05:25:27;;;;;;;6.57;1.33;;;;;5.40;102241.00;;;;4871771;29;20249;-69
2024/01/25 05:28:15;;;;;;;10.17;2.10;;;;;5.50;102235.00;;;;4880523;29;20256;-70
2024/01/25 05:31:02;;;;;;;14.27;1.93;;;;;5.40;102241.00;;;;4870223;29;20236;-69
2024/01/25 05:33:51;;;;;;;3.97;2.10;;;;;5.30;102244.00;;;;4884752;29;20228;-69
2024/01/25 05:36:38;;;;;;;6.43;1.97;;;;;5.30;102248.00;;;;4921381;28;20324;-69
2024/01/25 05:39:24;;;;;;;5.97;2.47;;;;;5.30;102245.00;;;;4881232;29;20257;-68
2024/01/25 05:42:10;;;;;;;11.67;2.93;;;;;5.30;102241.00;;;;4848722;29;20736;-69
2024/01/25 05:44:58;;;;;;;7.73;2.13;;;;;5.30;102258.00;;;;4890401;29;20249;-69
2024/01/25 05:47:44;;;;;;;9.10;2.10;;;;;5.30;102274.00;;;;4863223;29;20233;-68
2024/01/25 05:50:30;;;;;;;5.47;2.20;;;;;5.10;102262.00;;;;4906643;29;20979;-69
2024/01/25 05:53:19;;;;;;;18.90;3.50;;;;;5.10;102258.00;;;;4898060;29;20643;-69
2024/01/25 05:56:06;;;;;;;10.60;2.20;;;;;5.20;102260.00;;;;4895975;29;20241;-69
2024/01/25 05:58:52;;;;;;;6.43;2.37;;;;;5.10;102255.00;;;;4881250;29;20232;-69
2024/01/25 06:01:40;;;;;;;8.63;3.47;;;;;5.10;102251.00;;;;4892191;29;20350;-69
2024/01/25 06:04:27;;;;;;;7.13;2.90;;;;;5.20;102253.00;;;;4911524;28;20322;-69
2024/01/25 06:07:13;;;;;;;6.47;2.17;;;;;5.20;102260.00;;;;4917253;29;20703;-69
2024/01/25 06:10:00;;;;;;;6.07;3.10;;;;;5.20;102261.00;;;;4871114;29;20368;-69
2024/01/25 06:12:46;;;;;;;4.37;1.97;;;;;5.20;102265.00;;;;4899369;29;20297;-68
2024/01/25 06:15:32;;;;;;;15.40;2.43;;;;;5.10;102259.00;;;;4887422;29;20240;-69
2024/01/25 06:18:20;;;;;;;2.27;1.50;;;;;5.10;102261.00;;;;4860662;29;20368;-69
2024/01/25 06:21:10;;;;;;;12.30;2.73;;;;;5.20;102265.00;;;;4913155;29;20333;-70
2024/01/25 06:23:56;;;;;;;6.00;1.87;;;;;5.10;102255.00;;;;4870794;29;20245;-69
2024/01/25 06:26:43;;;;;;;5.50;2.13;;;;;5.00;102265.00;;;;4878829;29;20648;-69
2024/01/25 06:29:29;;;;;;;11.83;3.03;;;;;4.90;102257.00;;;;4921095;28;20211;-70
2024/01/25 06:32:15;;;;;;;8.93;2.17;;;;;5.00;102265.00;;;;4855996;29;20227;-69
2024/01/25 06:35:13;;;;;;;5.77;1.97;;;;;5.10;102261.00;;;;4907289;28;20246;-67
2024/01/25 06:37:59;;;;;;;6.93;2.33;;;;;5.10;102271.00;;;;4907898;29;20228;-69
2024/01/25 06:40:45;;;;;;;5.40;2.57;;;;;5.00;102272.00;;;;4883906;29;20325;-69
2024/01/25 06:43:32;;;;;;;5.43;3.03;;;;;4.90;102271.00;;;;4921625;28;20249;-70
2024/01/25 06:46:18;;;;;;;8.73;2.23;;;;;4.90;102264.00;;;;4908187;29;20240;-69
2024/01/25 06:49:04;;;;;;;9.37;2.60;;;;;5.10;102277.00;;;;4920481;29;20232;-70
2024/01/25 06:51:52;;;;;;;24.80;2.73;;;;;4.90;102265.00;;;;4876145;29;20225;-69
2024/01/25 06:54:39;;;;;;;6.07;2.00;;;;;4.90;102277.00;;;;4937999;28;20291;-69
2024/01/25 06:57:25;;;;;;;5.30;2.03;;;;;4.90;102281.00;;;;4874399;29;20747;-69
2024/01/25 07:00:15;;;;;;;11.60;2.77;;;;;5.00;102290.00;;;;4881597;29;20216;-69
2024/01/25 07:03:01;;;;;;;5.33;2.20;;;;;5.00;102295.00;;;;4909736;29;21459;-69
2024/01/25 07:05:48;;;;;;;5.90;2.60;;;;;4.90;102297.00;;;;4866262;28;20330;-68
2024/01/25 07:08:36;;;;;;;8.87;3.03;;;;;5.00;102296.00;;;;4915408;29;20224;-70
2024/01/25 07:11:23;;;;;;;5.93;2.07;;;;;5.00;102300.00;;;;4876278;29;20253;-71
2024/01/25 07:14:09;;;;;;;4.80;2.10;;;;;5.00;102301.00;;;;4887073;29;20835;-69
2024/01/25 07:16:55;;;;;;;12.70;2.47;;;;;5.10;102298.00;;;;4883919;29;20236;-70
2024/01/25 07:19:41;;;;;;;4.20;2.50;;;;;5.10;102302.00;;;;4883298;29;20304;-70
2024/01/25 07:22:28;;;;;;;14.50;2.47;;;;;5.10;102307.00;;;;4885445;29;20225;-70
2024/01/25 07:25:16;;;;;;;8.67;2.30;;;;;5.20;102300.00;;;;4902748;29;20370;-71
2024/01/25 07:28:03;;;;;;;14.20;2.43;;;;;5.10;102307.00;;;;4918241;29;20224;-71
2024/01/25 07:30:49;;;;;;;4.20;2.27;;;;;5.10;102307.00;;;;4892058;29;20244;-71
2024/01/25 07:33:37;;;;;;;8.90;2.57;;;;;5.00;102312.00;;;;4895409;29;20229;-71
2024/01/25 07:36:24;;;;;;;16.50;2.37;;;;;5.10;102329.00;;;;4860697;29;20231;-68
2024/01/25 07:39:11;;;;;;;10.30;2.97;;;;;5.10;102329.00;;;;4850497;29;20589;-71
2024/01/25 07:41:59;;;;;;;12.13;3.10;;;;;5.20;102324.00;;;;4905456;29;20228;-70
2024/01/25 07:44:45;;;;;;;7.90;2.23;;;;;5.30;102328.00;;;;4910363;29;20252;-68
2024/01/25 07:47:31;;;;;;;9.43;2.53;;;;;5.30;102327.00;;;;4840151;29;20234;-71
2024/01/25 07:50:17;;;;;;;10.00;2.53;;;;;5.30;102327.00;;;;4851602;29;20234;-71
2024/01/25 07:53:04;;;;;;;11.33;2.57;;;;;5.40;102321.00;;;;4909271;29;20374;-70
2024/01/25 07:55:50;;;;;;;10.00;3.47;;;;;5.40;102323.00;;;;4903308;29;20243;-72
2024/01/25 07:58:38;;;;;;;5.70;2.23;;;;;5.50;102333.00;;;;4883021;28;20346;-70
2024/01/25 08:01:24;;;;;;;8.17;2.87;;;;;5.50;102334.00;;;;4874385;28;20318;-71
2024/01/25 08:04:11;;;;;;;6.80;2.63;;;;;5.50;102337.00;;;;4896511;29;20237;-70
2024/01/25 08:06:57;;;;;;;9.47;2.33;;;;;5.50;102328.00;;;;4860556;29;20256;-71
2024/01/25 08:09:44;;;;;;;12.70;3.00;;;;;5.50;102332.00;;;;4841855;29;20223;-72
2024/01/25 08:12:30;;;;;;;6.93;2.53;;;;;5.60;102334.00;;;;4914188;29;20726;-68
2024/01/25 08:15:18;;;;;;;7.03;2.50;;;;;5.50;102339.00;;;;4903463;29;20244;-70
2024/01/25 08:18:05;;;;;;;19.93;3.67;;;;;5.60;102352.00;;;;4881841;29;20347;-71
2024/01/25 08:20:51;;;;;;;6.13;2.33;;;;;5.60;102341.00;;;;4897853;29;20299;-70
2024/01/25 08:23:38;;;;;;;17.60;3.27;;;;;5.70;102342.00;;;;4880520;29;20237;-71
2024/01/25 08:26:25;;;;;;;12.63;2.23;;;;;5.80;102344.00;;;;4903979;29;20279;-69
2024/01/25 08:29:12;;;;;;;9.73;2.60;;;;;5.80;102342.00;;;;4894797;28;20236;-68
2024/01/25 08:31:59;;;;;;;10.30;2.67;;;;;5.90;102352.00;;;;4859250;29;20379;-70
2024/01/25 08:34:46;;;;;;;10.23;3.87;;;;;5.90;102350.00;;;;4841902;29;20241;-71
2024/01/25 08:37:33;;;;;;;19.20;3.03;;;;;5.90;102349.00;;;;4909136;28;20228;-70
2024/01/25 08:40:20;;;;;;;10.47;3.27;;;;;5.90;102347.00;;;;4907130;29;20233;-71
2024/01/25 08:43:06;;;;;;;12.43;3.47;;;;;6.00;102346.00;;;;4920672;29;20245;-68
2024/01/25 08:45:52;;;;;;;3.43;2.53;;;;;6.00;102350.00;;;;4882491;28;20278;-71
2024/01/25 08:48:40;;;;;;;11.30;3.83;;;;;6.10;102349.00;;;;4920190;29;20811;-70
2024/01/25 08:51:27;;;;;;;15.53;2.80;;;;;6.10;102359.00;;;;4902347;29;20283;-71
2024/01/25 08:54:13;;;;;;;16.00;4.53;;;;;6.20;102350.00;;;;4917274;29;20232;-71
2024/01/25 08:56:59;;;;;;;13.53;3.10;;;;;6.20;102342.00;;;;4889802;29;20229;-70
2024/01/25 08:59:45;;;;;;;12.27;3.60;;;;;6.30;102353.00;;;;4915177;29;20301;-71
2024/01/25 09:02:32;;;;;;;5.93;2.57;;;;;6.30;102350.00;;;;4881269;29;20760;-70
2024/01/25 09:05:20;;;;;;;14.23;3.07;;;;;6.30;102346.00;;;;4904967;29;20599;-71
2024/01/25 09:08:09;;;;;;;10.20;3.37;;;;;6.40;102342.00;;;;4866696;29;21363;-71
2024/01/25 09:10:55;;;;;;;17.30;3.23;;;;;6.50;102342.00;;;;4903419;29;20447;-71
2024/01/25 09:13:45;;;;;;;8.47;3.30;;;;;6.60;102347.00;;;;4890229;28;20225;-70
2024/01/25 09:16:32;;;;;;;13.63;3.63;;;;;6.60;102340.00;;;;4891936;28;20732;-68
2024/01/25 09:19:19;;;;;;;11.17;4.73;;;;;6.70;102349.00;;;;4907047;29;20864;-69
2024/01/25 09:22:07;;;;;;;14.73;4.10;;;;;6.80;102342.00;;;;4900829;29;20255;-71
2024/01/25 09:24:54;;;;;;;9.33;4.20;;;;;6.80;102346.00;;;;4866514;29;20243;-69
2024/01/25 09:27:40;;;;;;;13.87;3.57;;;;;6.90;102335.00;;;;4880889;29;20222;-70
2024/01/25 09:30:28;;;;;;;25.87;4.90;;;;;6.90;102336.00;;;;4907145;29;20266;-70
2024/01/25 09:33:15;;;;;;;14.77;5.00;;;;;6.90;102336.00;;;;4879483;29;20724;-69
2024/01/25 09:36:02;;;;;;;16.37;4.70;;;;;7.00;102344.00;;;;4929628;28;20870;-71
2024/01/25 09:38:50;;;;;;;20.57;4.17;;;;;7.10;102346.00;;;;4876457;29;20573;-72
2024/01/25 09:41:36;;;;;;;10.90;3.63;;;;;7.20;102343.00;;;;4880968;29;20830;-72
2024/01/25 09:44:23;;;;;;;13.27;4.33;;;;;7.30;102344.00;;;;4903026;29;20223;-69
2024/01/25 09:47:11;;;;;;;13.93;4.53;;;;;7.30;102359.00;;;;4838219;29;20294;-70
2024/01/25 09:49:57;;;;;;;17.43;4.83;;;;;7.40;102371.00;;;;4876782;29;20230;-72
2024/01/25 09:52:45;;;;;;;11.33;4.10;;;;;7.40;102365.00;;;;4871535;29;20854;-70
2024/01/25 09:55:39;;;;;;;14.97;4.17;;;;;7.50;102370.00;;;;4924843;29;20258;-68
2024/01/25 10:17:57;;;;;;;12.93;4.47;;;;;7.90;102389.00;;;;5121242;27;20575;-70
2024/01/25 10:21:04;;;;;;;17.27;5.40;;;;;8.00;102386.00;;;;5121723;28;20255;-71
2024/01/25 10:23:51;;;;;;;22.23;5.30;;;;;8.00;102382.00;;;;5117931;28;20270;-71
2024/01/25 10:26:38;;;;;;;16.20;4.30;;;;;8.10;102381.00;;;;5119593;28;20225;-69
2024/01/25 10:29:26;;;;;;;18.23;4.00;;;;;8.20;102375.00;;;;5122684;28;20703;-68
2024/01/25 10:32:13;;;;;;;23.27;4.70;;;;;8.20;102369.00;;;;5120388;28;20228;-70
2024/01/25 10:35:02;;;;;;;10.97;5.30;;;;;8.30;102369.00;;;;5120492;28;20210;-73
2024/01/25 10:37:49;;;;;;;12.83;4.00;;;;;8.30;102370.00;;;;5116956;28;20249;-71
2024/01/25 10:40:37;;;;;;;13.00;4.83;;;;;8.40;102371.00;;;;5113194;28;20861;-69
2024/01/25 10:43:24;;;;;;;17.33;4.27;;;;;8.60;102360.00;;;;5116022;28;20689;-70
2024/01/25 10:46:11;;;;;;;19.37;5.13;;;;;8.70;102347.00;;;;5120630;28;20311;-70
2024/01/25 10:48:58;;;;;;;15.57;4.23;;;;;8.80;102342.00;;;;5118282;28;20250;-70
2024/01/25 10:51:47;;;;;;;15.63;4.07;;;;;8.80;102345.00;;;;5117012;28;20230;-67
2024/01/25 10:54:35;;;;;;;22.73;3.87;;;;;8.80;102352.00;;;;5119601;28;20210;-71
2024/01/25 10:57:21;;;;;;;12.20;4.47;;;;;8.70;102340.00;;;;5122736;28;20475;-70
2024/01/25 11:00:10;;;;;;;16.27;4.30;;;;;8.70;102332.00;;;;5120909;28;20202;-71
2024/01/25 11:02:57;;;;;;;18.93;4.90;;;;;8.60;102329.00;;;;5121312;28;20284;-70
2024/01/25 11:05:43;;;;;;;16.93;4.77;;;;;8.60;102329.00;;;;5121133;28;20239;-69
2024/01/25 11:08:31;;;;;;;13.33;4.03;;;;;8.60;102325.00;;;;5119892;28;20268;-71
2024/01/25 11:11:20;;;;;;;8.63;3.80;;;;;8.60;102318.00;;;;5113071;28;20297;-69
2024/01/25 11:14:12;;;;;;;20.10;4.00;;;;;8.70;102312.00;;;;5119142;28;20202;-69
2024/01/25 11:16:58;;;;;;;11.73;4.13;;;;;8.70;102323.00;;;;5110361;28;20999;-69
2024/01/25 11:19:45;;;;;;;11.20;4.63;;;;;8.70;102302.00;;;;5097585;28;20208;-69
2024/01/25 11:22:35;;;;;;;20.77;4.07;;;;;8.70;102314.00;;;;5107733;28;20264;-72
2024/01/25 11:25:23;;;;;;;11.37;4.23;;;;;8.80;102316.00;;;;5108838;28;20230;-70
2024/01/25 11:28:10;;;;;;;26.90;4.77;;;;;8.80;102311.00;;;;5098869;28;20234;-72
2024/01/25 11:30:57;;;;;;;8.83;4.07;;;;;8.80;102301.00;;;;5103059;28;20238;-70
2024/01/25 11:33:43;;;;;;;16.97;5.50;;;;;8.90;102295.00;;;;5102498;28;20273;-73
2024/01/25 11:36:30;;;;;;;10.70;4.60;;;;;8.90;102288.00;;;;5098585;28;20218;-69
2024/01/25 11:39:17;;;;;;;20.30;5.20;;;;;8.90;102288.00;;;;5107228;28;20284;-71
2024/01/25 11:42:05;;;;;;;18.23;5.30;;;;;9.00;102294.00;;;;5096511;28;20204;-73
2024/01/25 11:44:51;;;;;;;16.07;5.13;;;;;9.00;102294.00;;;;5107069;28;20635;-75
2024/01/25 11:47:39;;;;;;;15.23;4.83;;;;;9.00;102271.00;;;;5099208;28;20835;-71
2024/01/25 11:50:26;;;;;;;18.63;4.23;;;;;8.90;102277.00;;;;5107430;28;20223;-71
2024/01/25 11:53:12;;;;;;;16.53;4.03;;;;;8.90;102279.00;;;;5106141;28;20207;-71
2024/01/25 11:55:59;;;;;;;11.53;3.97;;;;;8.90;102267.00;;;;5108222;28;20215;-72
2024/01/25 11:58:46;;;;;;;14.27;4.83;;;;;8.90;102262.00;;;;5098897;28;20231;-73
2024/01/25 12:01:33;;;;;;;22.47;4.33;;;;;8.80;102268.00;;;;5100930;28;20207;-71
2024/01/25 12:04:20;;;;;;;16.23;4.67;;;;;8.80;102274.00;;;;5108438;28;20218;-71
2024/01/25 12:07:06;;;;;;;22.20;5.00;;;;;8.80;102267.00;;;;5101288;28;20952;-71
2024/01/25 12:10:00;;;;;;;12.17;4.87;;;;;8.80;102248.00;;;;5103013;28;20897;-69
2024/01/25 12:12:49;;;;;;;10.43;3.93;;;;;8.70;102245.00;;;;5106764;28;20358;-69
2024/01/25 12:15:37;;;;;;;16.53;4.00;;;;;8.80;102234.00;;;;5103156;28;20577;-72
2024/01/25 12:18:23;;;;;;;20.50;3.97;;;;;8.90;102241.00;;;;5107329;28;20247;-70
2024/01/25 12:21:10;;;;;;;15.43;4.57;;;;;9.00;102240.00;;;;5097485;28;20257;-70
2024/01/25 12:23:56;;;;;;;17.23;4.50;;;;;9.00;102239.00;;;;5107614;28;20749;-70
2024/01/25 12:26:43;;;;;;;14.73;4.37;;;;;9.10;102234.00;;;;5102802;28;20711;-70
2024/01/25 12:29:29;;;;;;;13.27;5.00;;;;;9.10;102233.00;;;;5105646;28;20715;-69
2024/01/25 12:32:16;;;;;;;20.23;4.83;;;;;9.20;102215.00;;;;5104916;28;20339;-68
2024/01/25 12:35:03;;;;;;;7.63;3.70;;;;;9.30;102225.00;;;;5106101;28;20337;-69
2024/01/25 12:37:50;;;;;;;17.50;4.07;;;;;9.30;102228.00;;;;5102016;28;20240;-68
2024/01/25 12:40:36;;;;;;;16.63;4.00;;;;;9.30;102236.00;;;;5101537;28;20252;-69
2024/01/25 12:43:23;;;;;;;14.13;3.73;;;;;9.30;102245.00;;;;5103728;28;20207;-70
2024/01/25 12:46:10;;;;;;;14.97;4.67;;;;;9.40;102228.00;;;;5107672;28;20912;-70
2024/01/25 12:49:13;;;;;;;10.80;3.53;;;;;9.30;102222.00;;;;5103468;28;20255;-68
2024/01/25 12:52:00;;;;;;;18.20;4.27;;;;;9.30;102221.00;;;;5104527;28;20198;-71
2024/01/25 12:54:46;;;;;;;15.37;4.10;;;;;9.30;102205.00;;;;5107639;28;20272;-71
2024/01/25 12:57:32;;;;;;;18.53;4.37;;;;;9.40;102200.00;;;;5106626;28;20276;-64
2024/01/25 13:00:19;;;;;;;17.77;5.03;;;;;9.40;102194.00;;;;5104898;28;20218;-71
2024/01/25 13:03:06;;;;;;;18.57;4.43;;;;;9.30;102194.00;;;;5099196;28;20239;-69
2024/01/25 13:05:54;;;;;;;31.97;5.00;;;;;9.40;102204.00;;;;5106510;28;20211;-68
2024/01/25 13:08:41;;;;;;;14.43;3.80;;;;;9.40;102209.00;;;;5100000;28;20247;-69
2024/01/25 13:11:27;;;;;;;14.30;3.60;;;;;9.50;102220.00;;;;5106192;28;20229;-71
2024/01/25 13:14:14;;;;;;;17.27;4.27;;;;;9.50;102213.00;;;;5098587;28;20586;-69
2024/01/25 13:17:00;;;;;;;9.13;4.00;;;;;9.50;102220.00;;;;5094823;28;20974;-68
2024/01/25 13:19:47;;;;;;;12.27;4.37;;;;;9.50;102219.00;;;;5100703;28;20210;-68
2024/01/25 13:22:35;;;;;;;11.87;3.43;;;;;9.60;102219.00;;;;5106528;28;20288;-70
2024/01/25 13:25:21;;;;;;;9.33;3.90;;;;;9.70;102222.00;;;;5106246;28;20217;-71
2024/01/25 13:28:08;;;;;;;15.13;4.30;;;;;9.80;102217.00;;;;5103477;28;20272;-69
2024/01/25 13:30:54;;;;;;;25.60;5.87;;;;;9.70;102203.00;;;;5101101;28;20588;-70
2024/01/25 13:33:40;;;;;;;15.23;4.53;;;;;9.80;102208.00;;;;5105013;28;20681;-71
2024/01/25 13:36:29;;;;;;;12.47;4.27;;;;;9.80;102199.00;;;;5106053;28;20348;-71
2024/01/25 13:39:17;;;;;;;21.03;5.40;;;;;9.90;102191.00;;;;5105630;28;20230;-68
2024/01/25 13:42:03;;;;;;;21.90;5.70;;;;;9.90;102182.00;;;;5107055;28;20207;-71
2024/01/25 13:44:50;;;;;;;19.00;6.00;;;;;9.90;102169.00;;;;5103608;28;20206;-70
2024/01/25 13:47:36;;;;;;;21.13;5.10;;;;;9.90;102183.00;;;;5105768;28;20276;-71
2024/01/25 13:50:22;;;;;;;16.43;4.97;;;;;9.90;102182.00;;;;5103871;28;20311;-70
2024/01/25 13:53:08;;;;;;;17.03;4.93;;;;;9.90;102187.00;;;;5103240;28;20206;-68
2024/01/25 13:55:56;;;;;;;18.90;6.00;;;;;9.90;102180.00;;;;5106795;28;20259;-72
2024/01/25 13:58:42;;;;;;;14.93;5.27;;;;;10.00;102184.00;;;;5105378;28;20227;-70
2024/01/25 14:01:29;;;;;;;22.63;5.90;;;;;10.00;102184.00;;;;5106293;28;20215;-68
2024/01/25 14:04:15;;;;;;;26.17;5.70;;;;;10.00;102184.00;;;;5106145;28;20198;-71
2024/01/25 14:07:02;;;;;;;17.90;6.10;;;;;9.90;102157.00;;;;5105986;28;20272;-70
2024/01/25 14:09:49;;;;;;;16.10;5.47;;;;;9.90;102158.00;;;;5105917;28;20337;-73